Time;durP1;ratioP1;P1;durP2;ratioP2;P2;SDS_P1;SDS_P2;PMS_P1;PMS_P2;Temp;Humidity;BMP_temperature;BMP_pressure;BME280_temperature;BME280_humidity;BME280_pressure;Samples;Min_cycle;Max_cycle;Signal;HPM_P1;HPM_P2
2023/04/11 00:00:27;;;;;;;14.68;7.55;;;;;;;;;;5021771;28;20660;-74
2023/04/11 00:02:53;;;;;;;8.73;6.80;;;;;;;;;;5021251;28;20091;-73
2023/04/11 00:05:19;;;;;;;11.75;7.20;;;;;;;;;;5021887;28;20141;-74
2023/04/11 00:07:45;;;;;;;10.57;7.57;;;;;;;;;;5021913;28;20053;-74
2023/04/11 00:10:11;;;;;;;12.15;8.60;;;;;;;;;;5021225;28;20521;-73
2023/04/11 00:12:37;;;;;;;11.95;8.02;;;;;;;;;;5021351;28;20033;-73
2023/04/11 00:15:03;;;;;;;11.55;7.72;;;;;;;;;;5021134;28;20616;-73
2023/04/11 00:17:30;;;;;;;11.40;8.27;;;;;;;;;;5021617;28;20048;-74
2023/04/11 00:20:06;;;;;;;12.38;7.88;;;;;;;;;;5020214;28;20081;-72
2023/04/11 00:22:33;;;;;;;11.95;8.40;;;;;;;;;;5021559;28;20065;-73
2023/04/11 00:24:59;;;;;;;11.15;7.75;;;;;;;;;;5020809;28;20438;-73
2023/04/11 00:27:25;;;;;;;10.35;7.60;;;;;;;;;;5021153;28;20600;-73
2023/04/11 00:29:51;;;;;;;11.02;7.60;;;;;;;;;;5036823;28;20044;-73
2023/04/11 00:32:17;;;;;;;11.57;8.45;;;;;;;;;;5020011;28;20049;-74
2023/04/11 00:34:43;;;;;;;10.18;7.25;;;;;;;;;;5020461;28;20046;-73
2023/04/11 00:37:09;;;;;;;10.27;7.82;;;;;;;;;;5021319;28;20574;-73
2023/04/11 00:39:34;;;;;;;10.60;7.20;;;;;;;;;;5021361;28;20140;-73
2023/04/11 00:42:05;;;;;;;12.18;7.40;;;;;;;;;;5018936;28;20045;-73
2023/04/11 00:44:31;;;;;;;11.52;8.00;;;;;;;;;;5035802;28;20064;-74
2023/04/11 00:46:57;;;;;;;9.43;7.50;;;;;;;;;;5020555;28;20048;-73
2023/04/11 00:49:22;;;;;;;9.88;7.38;;;;;;;;;;5021285;28;20057;-74
2023/04/11 00:51:48;;;;;;;11.77;7.88;;;;;;;;;;5020892;28;20076;-73
2023/04/11 00:54:15;;;;;;;10.25;7.50;;;;;;;;;;5018677;28;20093;-73
2023/04/11 00:56:42;;;;;;;12.13;8.10;;;;;;;;;;5035400;28;20395;-74
2023/04/11 00:59:08;;;;;;;11.98;7.55;;;;;;;;;;5019591;28;20073;-73
2023/04/11 01:01:35;;;;;;;13.50;7.88;;;;;;;;;;5019186;28;20499;-73
2023/04/11 01:04:01;;;;;;;11.07;7.68;;;;;;;;;;5035426;28;20057;-73
2023/04/11 01:06:29;;;;;;;9.77;7.32;;;;;;;;;;5020829;28;20490;-74
2023/04/11 01:08:55;;;;;;;11.40;7.95;;;;;;;;;;5018854;28;20057;-74
2023/04/11 01:11:21;;;;;;;11.38;7.43;;;;;;;;;;5035803;28;20118;-73
2023/04/11 01:13:49;;;;;;;10.45;7.53;;;;;;;;;;5035369;28;20042;-73
2023/04/11 01:16:15;;;;;;;11.88;7.07;;;;;;;;;;5018495;28;20049;-73
2023/04/11 01:18:41;;;;;;;10.07;7.13;;;;;;;;;;5018219;28;20183;-73
2023/04/11 01:21:07;;;;;;;9.75;5.85;;;;;;;;;;5033119;28;20110;-73
2023/04/11 01:23:33;;;;;;;10.65;6.82;;;;;;;;;;5018166;28;20041;-73
2023/04/11 01:25:58;;;;;;;8.60;6.65;;;;;;;;;;5017173;28;20134;-73
2023/04/11 01:28:24;;;;;;;9.73;6.45;;;;;;;;;;5016134;28;20144;-73
2023/04/11 01:30:50;;;;;;;11.93;7.00;;;;;;;;;;5018450;28;20033;-74
2023/04/11 01:33:15;;;;;;;8.65;6.70;;;;;;;;;;5019417;28;20484;-74
2023/04/11 01:35:41;;;;;;;8.52;5.78;;;;;;;;;;5019024;28;20053;-72
2023/04/11 01:38:08;;;;;;;7.32;5.35;;;;;;;;;;5031934;28;20111;-74
2023/04/11 01:40:34;;;;;;;9.70;6.05;;;;;;;;;;5017265;28;20087;-73
2023/04/11 01:43:03;;;;;;;6.43;5.03;;;;;;;;;;5034676;28;20080;-74
2023/04/11 01:45:29;;;;;;;6.55;5.00;;;;;;;;;;5035450;28;20107;-74
2023/04/11 01:47:55;;;;;;;6.53;4.80;;;;;;;;;;5020281;28;20049;-73
2023/04/11 01:50:22;;;;;;;5.63;4.18;;;;;;;;;;5034395;28;20510;-74
2023/04/11 01:52:48;;;;;;;7.40;4.50;;;;;;;;;;5018184;28;20132;-73
2023/04/11 01:55:14;;;;;;;7.13;5.57;;;;;;;;;;5018942;28;20104;-73
2023/04/11 01:57:40;;;;;;;8.80;6.00;;;;;;;;;;5019097;28;20045;-74
2023/04/11 02:00:09;;;;;;;7.88;5.55;;;;;;;;;;5035326;28;20072;-73
2023/04/11 02:02:40;;;;;;;7.65;5.88;;;;;;;;;;5019107;28;20060;-74
2023/04/11 02:05:06;;;;;;;8.70;6.13;;;;;;;;;;5034292;28;20046;-74
2023/04/11 02:07:31;;;;;;;9.52;6.65;;;;;;;;;;5018974;28;20391;-74
2023/04/11 02:09:57;;;;;;;7.38;4.75;;;;;;;;;;5018634;28;20076;-74
2023/04/11 02:12:23;;;;;;;6.93;5.38;;;;;;;;;;5019269;28;20038;-74
2023/04/11 02:14:48;;;;;;;7.28;4.97;;;;;;;;;;5018918;28;20394;-74
2023/04/11 02:17:17;;;;;;;9.18;5.38;;;;;;;;;;5018667;28;20115;-73
2023/04/11 02:19:44;;;;;;;5.95;4.45;;;;;;;;;;5020017;28;20048;-74
2023/04/11 02:22:15;;;;;;;6.47;4.32;;;;;;;;;;5020107;28;20418;-74
2023/04/11 02:24:41;;;;;;;6.00;4.13;;;;;;;;;;5017415;28;20037;-73
2023/04/11 02:27:07;;;;;;;5.50;3.65;;;;;;;;;;5019537;28;20087;-74
2023/04/11 02:29:33;;;;;;;5.40;3.35;;;;;;;;;;5035080;28;20072;-73
2023/04/11 02:31:58;;;;;;;5.10;2.53;;;;;;;;;;5019442;28;20034;-74
2023/04/11 02:34:25;;;;;;;2.88;2.42;;;;;;;;;;5034038;28;20096;-73
2023/04/11 02:36:50;;;;;;;6.85;3.85;;;;;;;;;;5019115;28;20038;-74
2023/04/11 02:39:18;;;;;;;6.60;4.53;;;;;;;;;;5019960;28;20061;-75
2023/04/11 02:41:43;;;;;;;7.75;5.22;;;;;;;;;;5019828;28;20046;-74
2023/04/11 02:44:10;;;;;;;7.22;4.88;;;;;;;;;;5021942;28;20033;-74
2023/04/11 02:46:36;;;;;;;7.53;4.70;;;;;;;;;;5020835;28;20041;-73
2023/04/11 02:49:05;;;;;;;5.38;4.10;;;;;;;;;;5038175;28;20052;-75
2023/04/11 02:51:32;;;;;;;4.68;3.65;;;;;;;;;;5022780;28;20502;-74
2023/04/11 02:53:58;;;;;;;5.68;4.30;;;;;;;;;;5038287;28;20054;-73
2023/04/11 02:56:23;;;;;;;7.05;4.30;;;;;;;;;;5020779;28;20103;-73
2023/04/11 02:58:53;;;;;;;7.60;4.20;;;;;;;;;;5021212;28;20541;-73
2023/04/11 03:01:23;;;;;;;4.63;2.90;;;;;;;;;;5021411;28;20049;-75
2023/04/11 03:03:49;;;;;;;6.53;4.15;;;;;;;;;;5021534;28;20452;-73
2023/04/11 03:06:15;;;;;;;3.72;3.33;;;;;;;;;;5038435;28;20060;-75
2023/04/11 03:08:42;;;;;;;6.68;3.72;;;;;;;;;;5020722;28;20057;-74
2023/04/11 03:11:07;;;;;;;4.38;3.45;;;;;;;;;;5021285;28;20041;-74
2023/04/11 03:13:35;;;;;;;7.05;3.60;;;;;;;;;;5021006;28;20131;-74
2023/04/11 03:16:00;;;;;;;6.10;3.97;;;;;;;;;;5037879;28;20057;-73
2023/04/11 03:18:28;;;;;;;4.80;3.60;;;;;;;;;;5020658;28;20080;-75
2023/04/11 03:20:55;;;;;;;4.45;3.60;;;;;;;;;;5020793;28;20052;-74
2023/04/11 03:23:21;;;;;;;4.20;3.33;;;;;;;;;;5037651;28;20041;-73
2023/04/11 03:25:47;;;;;;;3.28;2.90;;;;;;;;;;5022852;28;20115;-73
2023/04/11 03:28:14;;;;;;;2.80;2.30;;;;;;;;;;5021149;28;20659;-74
2023/04/11 03:30:41;;;;;;;2.40;2.20;;;;;;;;;;5020145;28;20041;-73
2023/04/11 03:33:09;;;;;;;4.15;2.88;;;;;;;;;;5037158;28;20136;-73
2023/04/11 03:35:35;;;;;;;5.50;2.97;;;;;;;;;;5020837;28;20144;-74
2023/04/11 03:38:01;;;;;;;5.10;2.90;;;;;;;;;;5036106;28;20047;-74
2023/04/11 03:40:26;;;;;;;3.80;3.10;;;;;;;;;;5020113;28;20056;-74
2023/04/11 03:43:21;;;;;;;3.78;3.25;;;;;;;;;;5006855;28;20572;-74
2023/04/11 03:45:50;;;;;;;3.80;3.17;;;;;;;;;;5020853;28;20406;-75
2023/04/11 03:48:28;;;;;;;3.70;2.50;;;;;;;;;;5018885;28;20417;-73
2023/04/11 03:50:58;;;;;;;6.85;3.17;;;;;;;;;;5019906;28;20498;-75
2023/04/11 03:53:32;;;;;;;2.33;2.13;;;;;;;;;;5019931;28;20049;-76
2023/04/11 03:56:05;;;;;;;3.70;2.60;;;;;;;;;;5019532;28;20046;-74
2023/04/11 03:58:35;;;;;;;4.25;3.00;;;;;;;;;;5020917;28;20042;-75
2023/04/11 04:01:01;;;;;;;3.88;2.72;;;;;;;;;;5019765;28;20441;-74
2023/04/11 04:03:28;;;;;;;3.10;2.80;;;;;;;;;;5019265;28;20049;-75
2023/04/11 04:05:54;;;;;;;5.30;3.05;;;;;;;;;;5020380;28;20042;-75
2023/04/11 04:08:21;;;;;;;3.30;2.45;;;;;;;;;;5020439;28;20049;-76
2023/04/11 04:10:48;;;;;;;4.07;2.25;;;;;;;;;;5019656;28;20785;-74
2023/04/11 04:13:14;;;;;;;3.65;2.40;;;;;;;;;;5019057;28;20060;-75
2023/04/11 04:15:46;;;;;;;3.95;2.60;;;;;;;;;;5020039;28;20653;-73
2023/04/11 04:18:13;;;;;;;5.43;2.40;;;;;;;;;;5021809;28;20088;-74
2023/04/11 04:20:45;;;;;;;17.70;8.15;;;;;;;;;;5019598;28;20746;-74
2023/04/11 04:23:13;;;;;;;9.98;4.30;;;;;;;;;;5036354;28;20053;-75
2023/04/11 04:26:12;;;;;;;3.42;2.17;;;;;;;;;;5009312;28;20589;-74
2023/04/11 04:28:44;;;;;;;3.40;2.10;;;;;;;;;;5020884;28;20080;-75
2023/04/11 04:31:24;;;;;;;4.15;2.35;;;;;;;;;;5016060;28;20059;-75
2023/04/11 04:33:50;;;;;;;3.28;2.30;;;;;;;;;;5015432;28;20052;-73
2023/04/11 04:36:23;;;;;;;3.47;2.30;;;;;;;;;;5018275;28;20092;-74
2023/04/11 04:38:49;;;;;;;3.28;2.42;;;;;;;;;;5018565;28;20045;-72
2023/04/11 04:41:16;;;;;;;2.78;1.98;;;;;;;;;;5019049;28;20445;-74
2023/04/11 04:43:53;;;;;;;3.22;1.95;;;;;;;;;;5018275;28;20037;-74
2023/04/11 04:46:35;;;;;;;5.30;2.70;;;;;;;;;;5017621;28;20056;-74
2023/04/11 04:49:02;;;;;;;2.60;2.03;;;;;;;;;;5018664;28;20586;-75
2023/04/11 04:51:29;;;;;;;4.45;2.20;;;;;;;;;;5019308;28;20138;-74
2023/04/11 04:53:56;;;;;;;1.88;1.70;;;;;;;;;;5018745;28;20732;-74
2023/04/11 04:56:22;;;;;;;4.57;2.00;;;;;;;;;;5037098;28;20042;-74
2023/04/11 04:58:48;;;;;;;2.05;1.80;;;;;;;;;;5019349;28;20205;-71
2023/04/11 05:01:15;;;;;;;2.92;1.90;;;;;;;;;;5018618;28;20049;-72
2023/04/11 05:03:45;;;;;;;2.00;1.45;;;;;;;;;;5018936;28;20044;-73
2023/04/11 05:06:15;;;;;;;3.03;2.40;;;;;;;;;;5035633;28;20049;-73
2023/04/11 05:08:44;;;;;;;3.47;2.30;;;;;;;;;;5017867;28;20041;-73
2023/04/11 05:11:10;;;;;;;2.45;1.48;;;;;;;;;;5019346;28;20064;-74
2023/04/11 05:13:36;;;;;;;2.70;1.60;;;;;;;;;;5018821;28;20041;-75
2023/04/11 05:16:04;;;;;;;2.80;1.50;;;;;;;;;;5019268;28;20419;-75
2023/04/11 05:18:30;;;;;;;2.47;1.35;;;;;;;;;;5019357;28;20073;-72
2023/04/11 05:20:56;;;;;;;2.50;1.60;;;;;;;;;;5014264;28;20572;-74
2023/04/11 05:23:24;;;;;;;2.60;1.35;;;;;;;;;;5016538;28;20490;-73
2023/04/11 05:25:52;;;;;;;1.10;1.00;;;;;;;;;;5016122;28;20045;-73
2023/04/11 05:28:19;;;;;;;1.20;1.10;;;;;;;;;;5017721;28;20057;-74
2023/04/11 05:30:45;;;;;;;1.35;1.20;;;;;;;;;;5015903;28;20187;-72
2023/04/11 05:33:13;;;;;;;1.63;1.08;;;;;;;;;;5033542;28;20045;-73
2023/04/11 05:35:40;;;;;;;5.32;1.27;;;;;;;;;;5017877;28;20037;-74
2023/04/11 05:38:06;;;;;;;1.58;1.27;;;;;;;;;;5020338;28;20380;-74
2023/04/11 05:40:31;;;;;;;1.20;1.10;;;;;;;;;;5018950;28;20041;-73
2023/04/11 05:42:57;;;;;;;1.00;0.90;;;;;;;;;;5017324;28;20056;-75
2023/04/11 05:45:24;;;;;;;1.77;1.05;;;;;;;;;;5018523;28;20044;-70
2023/04/11 05:47:50;;;;;;;1.75;1.23;;;;;;;;;;5020346;28;20041;-72
2023/04/11 05:50:15;;;;;;;1.13;1.02;;;;;;;;;;5018374;28;20040;-72
2023/04/11 05:52:41;;;;;;;1.85;1.17;;;;;;;;;;5011024;28;21093;-74
2023/04/11 05:55:06;;;;;;;1.35;0.93;;;;;;;;;;5015506;28;20042;-73
2023/04/11 05:57:32;;;;;;;1.83;1.10;;;;;;;;;;5019536;28;20132;-73
2023/04/11 06:00:00;;;;;;;1.33;0.90;;;;;;;;;;5018501;28;20052;-73
2023/04/11 06:02:26;;;;;;;3.55;1.23;;;;;;;;;;5019883;28;20589;-71
2023/04/11 06:04:52;;;;;;;1.42;1.23;;;;;;;;;;5018332;28;20041;-72
2023/04/11 06:07:18;;;;;;;3.05;1.38;;;;;;;;;;5018813;28;20841;-74
2023/04/11 06:09:43;;;;;;;5.15;1.58;;;;;;;;;;5019857;28;20367;-73
2023/04/11 06:12:09;;;;;;;1.25;1.13;;;;;;;;;;5019864;28;20050;-75
2023/04/11 06:14:35;;;;;;;2.55;1.20;;;;;;;;;;5018562;28;20050;-73
2023/04/11 06:17:00;;;;;;;5.50;1.58;;;;;;;;;;5019024;28;20085;-72
2023/04/11 06:19:25;;;;;;;1.65;1.40;;;;;;;;;;5022938;28;20053;-74
2023/04/11 06:21:51;;;;;;;1.00;1.00;;;;;;;;;;5023542;28;20044;-73
2023/04/11 06:24:19;;;;;;;1.83;1.40;;;;;;;;;;5023714;28;20056;-71
2023/04/11 06:26:44;;;;;;;1.80;1.40;;;;;;;;;;5022042;28;20124;-72
2023/04/11 06:29:10;;;;;;;1.40;1.30;;;;;;;;;;5023659;28;20815;-73
2023/04/11 06:31:35;;;;;;;3.25;1.58;;;;;;;;;;5023504;28;20132;-73
2023/04/11 06:34:01;;;;;;;1.15;1.00;;;;;;;;;;5023503;28;20065;-74
2023/04/11 06:36:27;;;;;;;2.35;1.20;;;;;;;;;;5022312;28;20049;-72
2023/04/11 06:38:52;;;;;;;3.15;1.20;;;;;;;;;;5023155;28;20083;-74
2023/04/11 06:41:18;;;;;;;2.42;1.33;;;;;;;;;;5024264;28;20396;-74
2023/04/11 06:43:43;;;;;;;2.25;1.27;;;;;;;;;;5023669;28;20045;-70
2023/04/11 06:46:09;;;;;;;1.17;0.93;;;;;;;;;;5024686;28;20045;-73
2023/04/11 06:48:34;;;;;;;2.00;1.27;;;;;;;;;;5023771;28;20049;-72
2023/04/11 06:51:00;;;;;;;7.57;0.82;;;;;;;;;;5022892;28;20441;-72
2023/04/11 06:53:25;;;;;;;0.80;0.80;;;;;;;;;;5022836;28;20049;-74
2023/04/11 06:55:51;;;;;;;0.88;0.88;;;;;;;;;;5023439;28;20103;-73
2023/04/11 06:58:16;;;;;;;1.90;0.93;;;;;;;;;;5022708;28;20065;-71
2023/04/11 07:00:42;;;;;;;1.63;1.15;;;;;;;;;;5023152;28;20084;-74
2023/04/11 07:03:07;;;;;;;1.58;1.00;;;;;;;;;;5023166;28;20107;-72
2023/04/11 07:05:35;;;;;;;1.05;0.90;;;;;;;;;;5023127;28;20100;-70
2023/04/11 07:08:00;;;;;;;1.88;1.70;;;;;;;;;;5022882;28;20068;-70
2023/04/11 07:10:26;;;;;;;1.63;0.90;;;;;;;;;;5022368;28;20042;-71
2023/04/11 07:12:51;;;;;;;0.98;0.90;;;;;;;;;;5021905;28;20042;-71
2023/04/11 07:15:17;;;;;;;0.80;0.80;;;;;;;;;;5023272;28;20115;-73
2023/04/11 07:17:42;;;;;;;1.63;1.15;;;;;;;;;;5023345;28;20133;-70
2023/04/11 07:20:08;;;;;;;0.93;0.93;;;;;;;;;;5023877;28;20041;-71
2023/04/11 07:22:35;;;;;;;1.40;0.70;;;;;;;;;;5022857;28;20052;-73
2023/04/11 07:25:03;;;;;;;1.33;1.23;;;;;;;;;;5021816;28;20132;-73
2023/04/11 07:27:30;;;;;;;1.05;0.95;;;;;;;;;;5022607;28;20042;-73
2023/04/11 07:29:56;;;;;;;4.25;1.98;;;;;;;;;;5020200;28;21042;-72
2023/04/11 07:32:22;;;;;;;2.65;1.17;;;;;;;;;;5022153;28;20046;-73
2023/04/11 07:34:48;;;;;;;1.80;1.30;;;;;;;;;;5023034;28;20157;-72
2023/04/11 07:37:13;;;;;;;1.63;1.10;;;;;;;;;;5023961;28;20038;-70
2023/04/11 07:39:39;;;;;;;2.08;1.25;;;;;;;;;;5025896;28;20387;-70
2023/04/11 07:42:05;;;;;;;1.45;1.35;;;;;;;;;;5025968;28;20045;-70
2023/04/11 07:44:31;;;;;;;2.45;1.42;;;;;;;;;;5024984;28;20068;-71
2023/04/11 07:46:57;;;;;;;1.73;1.48;;;;;;;;;;5024211;28;20419;-70
2023/04/11 07:49:22;;;;;;;1.33;1.20;;;;;;;;;;5024854;28;20525;-71
2023/04/11 07:51:47;;;;;;;1.20;1.10;;;;;;;;;;5025466;28;20392;-70
2023/04/11 07:54:13;;;;;;;1.77;1.15;;;;;;;;;;5024350;28;20049;-71
2023/04/11 07:56:38;;;;;;;1.33;1.23;;;;;;;;;;5026208;28;20151;-70
2023/04/11 07:59:04;;;;;;;1.95;0.73;;;;;;;;;;5021207;28;21723;-72
2023/04/11 08:01:30;;;;;;;1.65;0.77;;;;;;;;;;5022730;28;20962;-73
2023/04/11 08:03:55;;;;;;;1.42;0.88;;;;;;;;;;5022535;28;20053;-71
2023/04/11 08:06:21;;;;;;;1.10;1.00;;;;;;;;;;5021694;28;20056;-73
2023/04/11 08:08:48;;;;;;;0.88;0.88;;;;;;;;;;5022311;28;20084;-73
2023/04/11 08:11:13;;;;;;;4.22;1.02;;;;;;;;;;5022977;28;20110;-72
2023/04/11 08:13:39;;;;;;;1.38;0.75;;;;;;;;;;5021582;28;20053;-70
2023/04/11 08:16:09;;;;;;;0.93;0.93;;;;;;;;;;5021756;28;20190;-72
2023/04/11 08:18:36;;;;;;;1.00;0.90;;;;;;;;;;5022990;28;20911;-71
2023/04/11 08:21:02;;;;;;;1.20;1.10;;;;;;;;;;5022469;28;20077;-73
2023/04/11 08:23:28;;;;;;;0.70;0.70;;;;;;;;;;5021957;28;20041;-73
2023/04/11 08:25:54;;;;;;;1.23;0.70;;;;;;;;;;5022719;28;20045;-73
2023/04/11 08:28:20;;;;;;;0.60;0.60;;;;;;;;;;5022514;28;20151;-72
2023/04/11 08:30:45;;;;;;;0.68;0.68;;;;;;;;;;5023470;28;20418;-73
2023/04/11 08:33:11;;;;;;;3.22;0.90;;;;;;;;;;5022241;28;20080;-70
2023/04/11 08:35:41;;;;;;;0.65;0.60;;;;;;;;;;5023851;28;20060;-73
2023/04/11 08:38:07;;;;;;;1.58;0.85;;;;;;;;;;5021770;28;20053;-72
2023/04/11 08:40:32;;;;;;;0.73;0.73;;;;;;;;;;5021816;28;21107;-75
2023/04/11 08:43:01;;;;;;;1.23;0.90;;;;;;;;;;5020752;28;20037;-72
2023/04/11 08:45:27;;;;;;;1.67;0.88;;;;;;;;;;5021036;28;20054;-71
2023/04/11 08:47:53;;;;;;;0.60;0.60;;;;;;;;;;5022561;28;20049;-73
2023/04/11 08:50:19;;;;;;;1.15;0.68;;;;;;;;;;5021055;28;20159;-73
2023/04/11 08:52:48;;;;;;;0.85;0.70;;;;;;;;;;5021553;28;20049;-72
2023/04/11 08:55:13;;;;;;;0.57;0.57;;;;;;;;;;5021233;28;20073;-71
2023/04/11 08:57:38;;;;;;;0.80;0.80;;;;;;;;;;5021602;28;20045;-73
2023/04/11 09:00:17;;;;;;;0.70;0.70;;;;;;;;;;5020975;28;20132;-73
2023/04/11 09:02:56;;;;;;;0.52;0.52;;;;;;;;;;5022348;28;20041;-71
2023/04/11 09:05:25;;;;;;;3.20;0.60;;;;;;;;;;5019066;28;20045;-71
2023/04/11 09:07:50;;;;;;;0.85;0.77;;;;;;;;;;5022901;28;20037;-71
2023/04/11 09:10:18;;;;;;;0.43;0.43;;;;;;;;;;5021660;28;20134;-72
2023/04/11 09:12:44;;;;;;;0.63;0.50;;;;;;;;;;5024977;28;20051;-72
2023/04/11 09:15:29;;;;;;;0.98;0.60;;;;;;;;;;5026116;28;20140;-74
2023/04/11 09:17:55;;;;;;;1.00;0.73;;;;;;;;;;5029561;28;20157;-72
2023/04/11 09:20:26;;;;;;;0.40;0.40;;;;;;;;;;5031318;28;20045;-71
2023/04/11 09:22:52;;;;;;;3.25;0.63;;;;;;;;;;5024050;28;20108;-71
2023/04/11 09:25:19;;;;;;;0.88;0.75;;;;;;;;;;5022081;28;20041;-72
2023/04/11 09:27:45;;;;;;;2.35;0.70;;;;;;;;;;5021512;28;20088;-73
2023/04/11 09:30:21;;;;;;;1.25;0.90;;;;;;;;;;5020458;28;20072;-72
2023/04/11 09:32:48;;;;;;;2.40;0.70;;;;;;;;;;5018695;28;20046;-75
2023/04/11 09:35:15;;;;;;;0.70;0.55;;;;;;;;;;5020944;28;20072;-72
2023/04/11 09:37:45;;;;;;;2.72;1.05;;;;;;;;;;5021774;28;20053;-74
2023/04/11 09:40:13;;;;;;;1.48;0.70;;;;;;;;;;5021438;28;20049;-74
2023/04/11 09:42:40;;;;;;;0.60;0.60;;;;;;;;;;5021473;28;20076;-74
2023/04/11 09:45:16;;;;;;;0.95;0.65;;;;;;;;;;5019294;28;20044;-72
2023/04/11 09:47:42;;;;;;;0.40;0.40;;;;;;;;;;5020458;28;20037;-74
2023/04/11 09:50:08;;;;;;;2.75;0.50;;;;;;;;;;5020725;28;20136;-71
2023/04/11 09:52:35;;;;;;;1.80;0.60;;;;;;;;;;5020326;28;20136;-75
2023/04/11 09:55:03;;;;;;;2.40;0.55;;;;;;;;;;5023230;28;20068;-75
2023/04/11 09:57:30;;;;;;;1.45;0.77;;;;;;;;;;5026014;28;20419;-76
2023/04/11 09:59:57;;;;;;;1.20;0.63;;;;;;;;;;5024715;28;20037;-72
2023/04/11 10:02:22;;;;;;;0.40;0.40;;;;;;;;;;5024753;28;20037;-74
2023/04/11 10:04:50;;;;;;;0.82;0.60;;;;;;;;;;5023675;28;20398;-74
2023/04/11 10:11:06;;;;;;;1.20;0.60;;;;;;;;;;5025758;28;20099;-72
2023/04/11 10:13:38;;;;;;;0.75;0.50;;;;;;;;;;5023575;28;20515;-73
2023/04/11 10:16:12;;;;;;;2.10;0.70;;;;;;;;;;5023873;28;20057;-73
2023/04/11 10:18:46;;;;;;;1.00;0.70;;;;;;;;;;5023592;28;20064;-73
2023/04/11 10:21:33;;;;;;;0.88;0.52;;;;;;;;;;5022273;28;20140;-73
2023/04/11 10:24:09;;;;;;;3.60;0.60;;;;;;;;;;5023539;28;20554;-73
2023/04/11 10:26:49;;;;;;;2.42;0.63;;;;;;;;;;5023213;28;20088;-73
2023/04/11 10:29:32;;;;;;;2.15;0.70;;;;;;;;;;5022343;28;20710;-72
2023/04/11 10:32:16;;;;;;;1.48;0.60;;;;;;;;;;5023136;28;20056;-72
2023/04/11 10:34:53;;;;;;;1.15;0.70;;;;;;;;;;5023456;28;20052;-72
2023/04/11 10:37:35;;;;;;;3.00;0.73;;;;;;;;;;5023285;28;20048;-73
2023/04/11 10:40:00;;;;;;;1.40;0.90;;;;;;;;;;5022175;28;20049;-74
2023/04/11 10:42:26;;;;;;;2.30;0.95;;;;;;;;;;5023529;28;20060;-73
2023/04/11 10:45:20;;;;;;;0.52;0.52;;;;;;;;;;5022765;28;20620;-76
2023/04/11 10:47:55;;;;;;;2.80;0.95;;;;;;;;;;5023080;28;20049;-71
2023/04/11 10:50:27;;;;;;;0.60;0.60;;;;;;;;;;5022308;28;20494;-72
2023/04/11 10:53:00;;;;;;;1.05;0.75;;;;;;;;;;5022145;28;20041;-72
2023/04/11 10:55:27;;;;;;;1.40;0.90;;;;;;;;;;5023073;28;20057;-72
2023/04/11 10:58:08;;;;;;;3.08;1.10;;;;;;;;;;5023407;28;20069;-72
2023/04/11 11:00:45;;;;;;;1.45;0.93;;;;;;;;;;5021731;28;20045;-72
2023/04/11 11:03:15;;;;;;;2.17;1.20;;;;;;;;;;5022060;28;20136;-72
2023/04/11 11:05:40;;;;;;;2.10;1.20;;;;;;;;;;5023059;28;20542;-72
2023/04/11 11:08:06;;;;;;;1.60;0.85;;;;;;;;;;5022916;28;20064;-73
2023/04/11 11:10:43;;;;;;;1.83;1.13;;;;;;;;;;5023213;28;20128;-76
2023/04/11 11:13:08;;;;;;;1.55;0.95;;;;;;;;;;5021141;28;20056;-73
2023/04/11 11:15:38;;;;;;;1.48;0.75;;;;;;;;;;5023000;28;20045;-72
2023/04/11 11:18:08;;;;;;;3.38;0.93;;;;;;;;;;5022802;28;20068;-73
2023/04/11 11:20:36;;;;;;;0.95;0.60;;;;;;;;;;5022943;28;20953;-76
2023/04/11 11:23:06;;;;;;;2.13;0.80;;;;;;;;;;5021357;28;20064;-71
2023/04/11 11:25:32;;;;;;;5.30;0.90;;;;;;;;;;5022592;28;20057;-72
2023/04/11 11:28:08;;;;;;;2.45;0.82;;;;;;;;;;5022742;28;20044;-71
2023/04/11 11:30:36;;;;;;;2.38;1.25;;;;;;;;;;5023092;28;20111;-73
2023/04/11 11:33:27;;;;;;;1.60;1.00;;;;;;;;;;5022903;28;20045;-73
2023/04/11 11:35:54;;;;;;;3.03;0.82;;;;;;;;;;5022687;28;20115;-72
2023/04/11 11:38:21;;;;;;;2.05;0.80;;;;;;;;;;5024226;28;20055;-71
2023/04/11 11:40:48;;;;;;;0.82;0.73;;;;;;;;;;5022973;28;20045;-71
2023/04/11 11:43:15;;;;;;;0.70;0.70;;;;;;;;;;5022242;28;20191;-74
2023/04/11 11:45:40;;;;;;;1.48;0.70;;;;;;;;;;5020631;28;20037;-73
2023/04/11 11:48:06;;;;;;;1.02;0.68;;;;;;;;;;5021782;28;20057;-73
2023/04/11 11:50:31;;;;;;;2.53;0.98;;;;;;;;;;5022022;28;20095;-74
2023/04/11 11:53:11;;;;;;;1.35;0.50;;;;;;;;;;5021083;28;20096;-73
2023/04/11 11:55:37;;;;;;;1.70;0.80;;;;;;;;;;5020561;28;20152;-73
2023/04/11 11:58:04;;;;;;;1.38;0.63;;;;;;;;;;5022192;28;20041;-72
2023/04/11 12:00:36;;;;;;;1.88;0.57;;;;;;;;;;5022771;28;20452;-73
2023/04/11 12:03:02;;;;;;;0.95;0.85;;;;;;;;;;5022290;28;20128;-73
2023/04/11 12:05:33;;;;;;;1.35;0.85;;;;;;;;;;5020983;28;20244;-74
2023/04/11 12:08:04;;;;;;;1.73;0.65;;;;;;;;;;5022104;28;20052;-75
2023/04/11 12:10:37;;;;;;;0.50;0.50;;;;;;;;;;5023246;28;20056;-75
2023/04/11 12:13:10;;;;;;;2.13;1.02;;;;;;;;;;5020644;28;20083;-72
2023/04/11 12:15:36;;;;;;;2.70;0.80;;;;;;;;;;5022091;28;20112;-73
2023/04/11 12:18:04;;;;;;;0.93;0.70;;;;;;;;;;5022010;28;20058;-73
2023/04/11 12:20:30;;;;;;;3.50;0.98;;;;;;;;;;5022526;28;20060;-73
2023/04/11 12:22:56;;;;;;;1.15;0.70;;;;;;;;;;5021681;28;20044;-73
2023/04/11 12:25:21;;;;;;;1.45;0.68;;;;;;;;;;5021928;28;20029;-72
2023/04/11 12:27:47;;;;;;;1.13;0.98;;;;;;;;;;5021149;28;20394;-73
2023/04/11 12:30:14;;;;;;;0.70;0.70;;;;;;;;;;5020664;28;20049;-74
2023/04/11 12:32:40;;;;;;;2.58;0.82;;;;;;;;;;5021329;28;20037;-73
2023/04/11 12:35:06;;;;;;;5.82;0.82;;;;;;;;;;5020525;28;20061;-72
2023/04/11 12:37:32;;;;;;;1.90;0.80;;;;;;;;;;5021377;28;20521;-75
2023/04/11 12:39:58;;;;;;;3.05;0.80;;;;;;;;;;5020480;28;20049;-71
2023/04/11 12:42:23;;;;;;;1.60;0.80;;;;;;;;;;5021610;28;20518;-75
2023/04/11 12:44:50;;;;;;;1.88;0.90;;;;;;;;;;5019882;28;20042;-74
2023/04/11 12:47:15;;;;;;;2.13;0.93;;;;;;;;;;5021469;28;20080;-76
2023/04/11 12:49:41;;;;;;;2.47;1.15;;;;;;;;;;5020706;28;20180;-74
2023/04/11 12:52:08;;;;;;;1.92;0.80;;;;;;;;;;5020086;28;20073;-74
2023/04/11 12:54:34;;;;;;;1.98;0.80;;;;;;;;;;5021113;28;20037;-74
2023/04/11 12:57:00;;;;;;;2.80;1.52;;;;;;;;;;5019937;28;20490;-73
2023/04/11 12:59:26;;;;;;;2.83;0.95;;;;;;;;;;5018996;28;20041;-73
2023/04/11 13:01:51;;;;;;;4.50;1.38;;;;;;;;;;5017888;28;20099;-73
2023/04/11 13:04:16;;;;;;;2.10;0.80;;;;;;;;;;5019243;28;21072;-74
2023/04/11 13:06:42;;;;;;;1.60;1.05;;;;;;;;;;5019720;28;20057;-75
2023/04/11 13:09:10;;;;;;;2.67;1.30;;;;;;;;;;5018910;28;20060;-74
2023/04/11 13:11:36;;;;;;;3.08;1.00;;;;;;;;;;5019653;28;20055;-74
2023/04/11 13:14:02;;;;;;;1.38;0.80;;;;;;;;;;5018290;28;20053;-74
2023/04/11 13:16:27;;;;;;;1.38;0.77;;;;;;;;;;5020800;28;20053;-73
2023/04/11 13:18:53;;;;;;;1.50;1.00;;;;;;;;;;5020366;28;20093;-74
2023/04/11 13:21:18;;;;;;;3.70;0.88;;;;;;;;;;5020505;28;20505;-74
2023/04/11 13:23:44;;;;;;;3.17;1.10;;;;;;;;;;5019229;28;20050;-73
2023/04/11 13:26:09;;;;;;;2.40;1.23;;;;;;;;;;5020343;28;20052;-73
2023/04/11 13:28:35;;;;;;;3.20;1.05;;;;;;;;;;5020180;28;20052;-74
2023/04/11 13:31:01;;;;;;;2.05;0.80;;;;;;;;;;5019554;28;20063;-74
2023/04/11 13:33:26;;;;;;;1.92;1.08;;;;;;;;;;5019443;28;20445;-71
2023/04/11 13:35:52;;;;;;;3.05;0.98;;;;;;;;;;5019910;28;20060;-71
2023/04/11 13:38:17;;;;;;;3.33;1.10;;;;;;;;;;5020160;28;20053;-74
2023/04/11 13:40:42;;;;;;;2.55;0.90;;;;;;;;;;5020115;28;20040;-74
2023/04/11 13:43:09;;;;;;;3.45;1.00;;;;;;;;;;5018907;28;20084;-74
2023/04/11 13:45:34;;;;;;;2.85;0.75;;;;;;;;;;5018694;28;20511;-73
2023/04/11 13:48:01;;;;;;;4.25;0.95;;;;;;;;;;5020765;28;20156;-70
2023/04/11 13:50:26;;;;;;;4.30;0.90;;;;;;;;;;5020354;28;20124;-70
2023/04/11 13:52:51;;;;;;;3.22;0.70;;;;;;;;;;5019054;28;20045;-70
2023/04/11 13:55:17;;;;;;;2.25;0.80;;;;;;;;;;5020160;28;20073;-69
2023/04/11 13:57:42;;;;;;;1.20;0.70;;;;;;;;;;5019537;28;20054;-72
2023/04/11 14:00:11;;;;;;;4.38;1.02;;;;;;;;;;5020569;28;20049;-74
2023/04/11 14:02:38;;;;;;;1.70;1.08;;;;;;;;;;5020071;28;20041;-74
2023/04/11 14:05:04;;;;;;;2.90;0.93;;;;;;;;;;5019719;28;20049;-71
2023/04/11 14:07:30;;;;;;;2.50;0.90;;;;;;;;;;5019698;28;20057;-72
2023/04/11 14:09:56;;;;;;;2.53;0.90;;;;;;;;;;5020133;28;20131;-71
2023/04/11 14:12:21;;;;;;;2.08;0.90;;;;;;;;;;5020469;28;20045;-74
2023/04/11 14:14:46;;;;;;;2.78;1.00;;;;;;;;;;5019725;28;20046;-74
2023/04/11 14:17:12;;;;;;;2.15;0.70;;;;;;;;;;5019186;28;20054;-72
2023/04/11 14:19:37;;;;;;;2.10;0.68;;;;;;;;;;5020073;28;20060;-71
2023/04/11 14:22:03;;;;;;;2.08;1.00;;;;;;;;;;5020597;28;20051;-72
2023/04/11 14:24:29;;;;;;;1.20;0.85;;;;;;;;;;5019733;28;20045;-72
2023/04/11 14:26:55;;;;;;;0.60;0.60;;;;;;;;;;5020011;28;20099;-72
2023/04/11 14:29:21;;;;;;;0.95;0.45;;;;;;;;;;5019121;28;20073;-73
2023/04/11 14:31:46;;;;;;;3.10;0.77;;;;;;;;;;5019243;28;20203;-72
2023/04/11 14:34:12;;;;;;;4.13;1.10;;;;;;;;;;5019519;28;20045;-72
2023/04/11 14:36:38;;;;;;;1.27;1.00;;;;;;;;;;5020174;28;20054;-72
2023/04/11 14:39:04;;;;;;;1.90;0.77;;;;;;;;;;5019775;28;20113;-73
2023/04/11 14:41:29;;;;;;;1.10;0.70;;;;;;;;;;5022431;28;20506;-72
2023/04/11 14:43:55;;;;;;;0.55;0.50;;;;;;;;;;5023270;28;20402;-73
2023/04/11 14:46:21;;;;;;;0.60;0.60;;;;;;;;;;5023271;28;20528;-72